Waterloo, IA

3:28 PM CST on January 25, 2015 (GMT -0600)
Columbus Dr - Waterloo | Change Station
CLOSE
Current Station
Personal Weather Station
Location: Waterloo, IA
Elevation: 910 ft
Nearby Weather Stations

Elev 910 ft 42.47 °N, 92.34 °W | Updated 9 seconds ago

Overcast
Overcast
30.9 °F
Feels Like 25 °F
N
6.0
Wind Variable Wind from NE
Gusts 8.0 mph

Today
High -- | Low -- °F
--% Chance of Precip.
Yesterday
High -- | Low -- °F
Precip. -- in
7:30 AM 5:13 PM
Waxing Crescent, 36% visible
Pressure 29.99 in
Visibility 10.0 miles
Clouds Mostly Cloudy 3700 ft
Windchill 25 °F
Dew Point 25 °F
Humidity 79%
Rainfall 0.00 in
Snow Depth Not available.
UV 1 out of 12
Pollen .10 out of 12
Air Quality Not available.
Flu Activity Not available.
METAR KALO 252054Z AUTO 02009KT 10SM BKN037 00/M03 A2996 RMK AO2 SLP155 T00001033 53013

More Conditions Fewer Conditions

Pressure 29.99 in
Visibility 10.0 miles
Clouds Mostly Cloudy 3700 ft
Windchill 25 °F
Dew Point 25 °F
Humidity 79%
Rainfall 0.00 in
Snow Depth Not available.
UV 1 out of 12
Pollen .10 out of 12
Air Quality Not available.
Flu Activity Not available.
METAR KALO 252054Z AUTO 02009KT 10SM BKN037 00/M03 A2996 RMK AO2 SLP155 T00001033 53013

More Conditions Fewer Conditions

10-Day Weather Forecast

Almanac

Astronomy

Jan. 25, 2015 Rise Set
Actual Time
Civil Twilight
Nautical Twilight
Astronomical Twilight
Moon
Length of Visible Light
Length of Day
Tomorrow will be .
, % of the Moon is Illuminated

Today's Extremes

State Highs State Lows

Community

WunderPhotos

Upload Photos

1,790,052 photos uploaded!

WunderBlogs® & News

Nearby

Air Quality

  Air Quality AQ Index Pollutant
Not available.

Snow Depth

Station Depth Elevation

Earthquake Activity

City Distance Mag. Time & Date
Minimum magnitude displayed is 2.5.

Coastal Water Temperatures

Place Temperature

Nearby Weather Stations